createdAt,value
2019-04-07T00:00:19.083Z,97.79
2019-04-07T00:02:48.527Z,97.91
2019-04-07T00:05:18.366Z,97.85
2019-04-07T00:07:47.518Z,97.90
2019-04-07T00:10:16.674Z,97.78
2019-04-07T00:12:45.804Z,97.77
2019-04-07T00:15:15.578Z,97.77
2019-04-07T00:17:44.673Z,98.10
2019-04-07T00:20:13.870Z,98.30
2019-04-07T00:22:42.921Z,98.50
2019-04-07T00:25:11.978Z,98.48
2019-04-07T00:27:41.198Z,98.73
2019-04-07T00:30:10.542Z,98.66
2019-04-07T00:32:39.662Z,98.69
2019-04-07T00:35:08.889Z,98.41
2019-04-07T00:37:38.333Z,98.59
2019-04-07T00:40:07.646Z,98.84
2019-04-07T00:42:36.737Z,98.87
2019-04-07T00:45:06.309Z,98.64
2019-04-07T00:47:35.354Z,98.38
2019-04-07T00:50:04.750Z,98.33
2019-04-07T00:52:33.805Z,97.92
2019-04-07T00:55:03.437Z,98.12
2019-04-07T00:57:32.897Z,98.13
2019-04-07T01:00:02.855Z,97.98
2019-04-07T01:02:32.388Z,97.48
2019-04-07T01:05:01.749Z,98.11
2019-04-07T01:07:30.900Z,98.30
2019-04-07T01:10:00.736Z,98.58
2019-04-07T01:12:30.259Z,99.15
2019-04-07T01:14:59.628Z,99.39
2019-04-07T01:17:29.126Z,99.63
2019-04-07T01:19:58.660Z,99.64
2019-04-07T01:22:27.881Z,98.72
2019-04-07T01:24:57.646Z,97.69
2019-04-07T01:27:27.021Z,98.18
2019-04-07T01:29:56.423Z,98.25
2019-04-07T01:32:25.725Z,99.14
2019-04-07T01:34:55.068Z,99.38
2019-04-07T01:37:24.211Z,99.54
2019-04-07T01:39:53.843Z,99.69
2019-04-07T01:42:41.098Z,99.90
2019-04-07T01:45:34.406Z,100.00
2019-04-07T01:48:17.650Z,100.00
2019-04-07T01:51:00.614Z,100.00
2019-04-07T01:53:56.411Z,100.00
2019-04-07T01:56:56.389Z,100.00
2019-04-07T01:59:44.395Z,100.00
2019-04-07T02:02:30.208Z,100.00
2019-04-07T02:05:27.020Z,100.00
2019-04-07T02:08:12.142Z,100.00
2019-04-07T02:10:55.084Z,100.00
2019-04-07T02:13:39.331Z,100.00
2019-04-07T02:16:42.329Z,100.00
2019-04-07T02:19:33.777Z,100.00
2019-04-07T02:22:13.548Z,100.00
2019-04-07T02:25:05.466Z,100.00
2019-04-07T02:27:56.882Z,100.00
2019-04-07T02:30:37.440Z,100.00
2019-04-07T02:33:28.862Z,100.00
2019-04-07T02:36:24.785Z,100.00
2019-04-07T02:39:00.074Z,100.00
2019-04-07T02:41:36.032Z,100.00
2019-04-07T02:44:25.351Z,100.00
2019-04-07T02:47:12.484Z,100.00
2019-04-07T02:50:15.639Z,100.00
2019-04-07T02:53:03.877Z,100.00
2019-04-07T02:55:47.078Z,100.00
2019-04-07T02:58:25.510Z,100.00
2019-04-07T03:01:14.110Z,100.00
2019-04-07T03:04:05.143Z,100.00
2019-04-07T03:06:54.480Z,100.00
2019-04-07T03:09:42.778Z,100.00
2019-04-07T03:12:30.791Z,100.00
2019-04-07T03:15:11.758Z,100.00
2019-04-07T03:17:57.307Z,100.00
2019-04-07T03:20:54.614Z,100.00
2019-04-07T03:23:51.678Z,100.00
2019-04-07T03:26:38.369Z,100.00
2019-04-07T03:29:16.438Z,100.00
2019-04-07T03:32:08.491Z,100.00
2019-04-07T03:35:00.103Z,100.00
2019-04-07T03:37:51.507Z,100.00
2019-04-07T03:40:30.533Z,100.00
2019-04-07T03:43:25.383Z,100.00
2019-04-07T03:46:12.127Z,100.00
2019-04-07T03:48:46.007Z,100.00
2019-04-07T03:51:37.743Z,100.00
2019-04-07T03:54:12.197Z,100.00
2019-04-07T03:57:00.516Z,100.00
2019-04-07T03:59:47.235Z,100.00
2019-04-07T04:02:39.143Z,100.00
2019-04-07T04:05:30.206Z,100.00
2019-04-07T04:08:09.875Z,100.00
2019-04-07T04:10:48.502Z,100.00
2019-04-07T04:13:45.762Z,100.00
2019-04-07T04:16:28.666Z,100.00
2019-04-07T04:18:59.936Z,100.00
2019-04-07T04:21:29.208Z,100.00
2019-04-07T04:23:59.049Z,100.00
2019-04-07T04:26:28.976Z,100.00
2019-04-07T04:28:58.318Z,100.00
2019-04-07T04:31:27.473Z,100.00
2019-04-07T04:33:56.531Z,100.00
2019-04-07T04:36:25.580Z,100.00
2019-04-07T04:38:55.544Z,100.00
2019-04-07T04:41:25.225Z,100.00
2019-04-07T04:43:54.721Z,100.00
2019-04-07T04:46:24.101Z,100.00
2019-04-07T04:48:53.378Z,100.00
2019-04-07T04:51:23.928Z,100.00
2019-04-07T04:53:53.718Z,100.00
2019-04-07T04:56:23.002Z,100.00
2019-04-07T04:58:53.217Z,100.00
2019-04-07T05:01:23.009Z,100.00
2019-04-07T05:03:52.540Z,100.00
2019-04-07T05:06:22.119Z,100.00
2019-04-07T05:08:51.267Z,100.00
2019-04-07T05:11:20.327Z,100.00
2019-04-07T05:13:50.163Z,100.00
2019-04-07T05:16:19.786Z,100.00
2019-04-07T05:18:49.186Z,100.00
2019-04-07T05:21:18.558Z,100.00
2019-04-07T05:23:48.039Z,100.00
2019-04-07T05:26:17.732Z,100.00
2019-04-07T05:28:47.159Z,100.00
2019-04-07T05:31:16.239Z,100.00
2019-04-07T05:33:45.358Z,100.00
2019-04-07T05:36:14.786Z,100.00
2019-04-07T05:38:44.568Z,100.00
2019-04-07T05:41:14.158Z,100.00
2019-04-07T05:43:43.182Z,100.00
2019-04-07T05:46:12.667Z,100.00
2019-04-07T05:48:42.103Z,100.00
2019-04-07T05:51:11.158Z,100.00
2019-04-07T05:53:44.075Z,100.00
2019-04-07T05:56:11.127Z,100.00
2019-04-07T05:58:41.838Z,100.00
2019-04-07T06:01:11.797Z,100.00
2019-04-07T06:03:42.819Z,100.00
2019-04-07T06:06:13.478Z,100.00
2019-04-07T06:08:42.649Z,100.00
2019-04-07T06:11:11.663Z,100.00
2019-04-07T06:13:43.825Z,100.00
2019-04-07T06:16:11.767Z,100.00
2019-04-07T06:18:41.147Z,100.00
2019-04-07T06:21:10.256Z,100.00
2019-04-07T06:23:39.581Z,100.00
2019-04-07T06:26:11.194Z,100.00
2019-04-07T06:28:40.446Z,100.00
2019-04-07T06:31:10.105Z,100.00
2019-04-07T06:33:39.422Z,100.00
2019-04-07T06:36:09.316Z,100.00
2019-04-07T06:38:43.278Z,100.00
2019-04-07T06:41:10.445Z,100.00
2019-04-07T06:43:40.202Z,99.55
2019-04-07T06:46:41.376Z,99.58
2019-04-07T06:49:35.494Z,98.97
2019-04-07T06:52:30.270Z,99.05
2019-04-07T06:55:33.360Z,99.55
2019-04-07T06:58:20.831Z,98.38
2019-04-07T07:01:14.551Z,98.79
2019-04-07T07:04:09.359Z,99.36
2019-04-07T07:06:57.876Z,98.12
2019-04-07T07:09:38.709Z,98.39
2019-04-07T07:12:23.589Z,97.54
2019-04-07T07:15:17.951Z,96.29
2019-04-07T07:18:06.118Z,96.56
2019-04-07T07:21:04.055Z,95.96
2019-04-07T07:23:36.609Z,97.21
2019-04-07T07:26:06.046Z,97.41
2019-04-07T07:28:35.928Z,97.12
2019-04-07T07:31:05.983Z,96.80
2019-04-07T07:33:38.928Z,95.95
2019-04-07T07:36:06.051Z,96.64
2019-04-07T07:38:35.165Z,96.80
2019-04-07T07:41:05.114Z,96.28
2019-04-07T07:43:34.257Z,96.02
2019-04-07T07:46:03.264Z,96.16
2019-04-07T07:48:32.464Z,95.12
2019-04-07T07:51:02.409Z,93.54
2019-04-07T07:53:31.744Z,93.11
2019-04-07T07:56:01.079Z,92.67
2019-04-07T07:58:32.787Z,92.93
2019-04-07T08:01:01.526Z,92.50
2019-04-07T08:03:31.490Z,91.12
2019-04-07T08:06:04.832Z,88.74
2019-04-07T08:08:33.098Z,87.09
2019-04-07T08:11:02.808Z,84.59
2019-04-07T08:13:32.489Z,82.98
2019-04-07T08:16:01.987Z,79.78
2019-04-07T08:18:31.187Z,79.68
2019-04-07T08:21:00.192Z,77.51
2019-04-07T08:23:29.695Z,76.76
2019-04-07T08:25:59.132Z,75.79
2019-04-07T08:28:28.184Z,73.53
2019-04-07T08:30:57.524Z,71.95
2019-04-07T08:33:28.736Z,72.53
2019-04-07T08:35:57.960Z,70.24
2019-04-07T08:38:28.226Z,69.65
2019-04-07T08:40:57.682Z,67.53
2019-04-07T08:43:27.648Z,67.53
2019-04-07T08:45:56.785Z,65.58
2019-04-07T08:48:25.803Z,65.49
2019-04-07T08:50:57.243Z,65.06
2019-04-07T08:53:25.800Z,64.94
2019-04-07T08:55:55.261Z,64.48
2019-04-07T08:58:27.892Z,64.41
2019-04-07T09:00:56.142Z,65.02
2019-04-07T09:03:25.226Z,62.91
2019-04-07T09:05:56.588Z,63.09
2019-04-07T09:08:25.116Z,60.39
2019-04-07T09:11:09.099Z,60.11
2019-04-07T09:13:38.487Z,59.96
2019-04-07T09:16:24.636Z,61.26
2019-04-07T09:19:10.326Z,60.62
2019-04-07T09:21:50.450Z,60.51
2019-04-07T09:24:56.648Z,60.46
2019-04-07T09:27:53.970Z,60.53
2019-04-07T09:30:33.327Z,60.76
2019-04-07T09:33:20.134Z,59.77
2019-04-07T09:36:06.980Z,60.00
2019-04-07T09:38:51.305Z,60.12
2019-04-07T09:41:48.600Z,60.00
2019-04-07T09:44:33.996Z,60.71
2019-04-07T09:47:24.468Z,60.20
2019-04-07T09:50:18.558Z,59.41
2019-04-07T09:53:08.595Z,58.15
2019-04-07T09:55:56.856Z,56.93
2019-04-07T09:58:42.685Z,58.33
2019-04-07T10:01:36.451Z,56.26
2019-04-07T10:04:14.342Z,57.05
2019-04-07T10:06:53.235Z,56.74
2019-04-07T10:09:35.756Z,56.41
2019-04-07T10:12:36.170Z,55.46
2019-04-07T10:15:15.385Z,57.02
2019-04-07T10:18:06.582Z,57.21
2019-04-07T10:21:00.978Z,59.15
2019-04-07T10:23:58.697Z,59.04
2019-04-07T10:27:02.550Z,57.77
2019-04-07T10:29:51.385Z,57.24
2019-04-07T10:32:58.403Z,57.54
2019-04-07T10:35:51.342Z,58.30
2019-04-07T10:38:26.975Z,57.23
2019-04-07T10:41:08.452Z,57.64
2019-04-07T10:43:55.730Z,57.39
2019-04-07T10:46:46.013Z,58.17
2019-04-07T10:49:32.984Z,58.39
2019-04-07T10:52:12.993Z,58.92
2019-04-07T10:55:13.167Z,59.28
2019-04-07T10:57:55.200Z,60.46
2019-04-07T11:00:48.789Z,59.37
2019-04-07T11:03:36.272Z,60.01
2019-04-07T11:06:27.367Z,60.64
2019-04-07T11:09:21.220Z,58.87
2019-04-07T11:11:57.534Z,60.37
2019-04-07T11:14:45.625Z,59.39
2019-04-07T11:17:48.843Z,60.87
2019-04-07T11:20:34.498Z,58.95
2019-04-07T11:23:21.774Z,59.29
2019-04-07T11:26:07.157Z,59.46
2019-04-07T11:28:44.640Z,58.22
2019-04-07T11:31:45.021Z,57.40
2019-04-07T11:34:25.698Z,57.15
2019-04-07T11:37:22.201Z,56.10
2019-04-07T11:40:10.695Z,55.98
2019-04-07T11:42:58.902Z,55.28
2019-04-07T11:45:56.178Z,56.45
2019-04-07T11:48:37.178Z,55.53
2019-04-07T11:51:26.592Z,56.17
2019-04-07T11:54:11.558Z,54.27
2019-04-07T11:56:57.618Z,52.72
2019-04-07T11:59:44.763Z,54.41
2019-04-07T12:02:24.706Z,54.69
2019-04-07T12:05:08.227Z,55.53
2019-04-07T12:07:55.239Z,54.51
2019-04-07T12:10:40.159Z,56.01
2019-04-07T12:13:31.452Z,57.16
2019-04-07T12:16:11.110Z,56.35
2019-04-07T12:19:11.670Z,55.82
2019-04-07T12:21:57.891Z,54.06
2019-04-07T12:24:52.203Z,53.86
2019-04-07T12:27:58.335Z,53.32
2019-04-07T12:30:44.626Z,52.51
2019-04-07T12:33:45.061Z,53.22
2019-04-07T12:36:36.259Z,51.76
2019-04-07T12:39:25.637Z,51.71
2019-04-07T12:42:23.271Z,50.78
2019-04-07T12:45:07.967Z,51.87
2019-04-07T12:47:55.053Z,50.53
2019-04-07T12:51:01.982Z,51.08
2019-04-07T12:53:53.779Z,51.00
2019-04-07T12:56:40.794Z,51.85
2019-04-07T12:59:32.512Z,51.22
2019-04-07T13:02:12.441Z,52.10
2019-04-07T13:04:48.210Z,51.04
2019-04-07T13:07:42.414Z,50.42
2019-04-07T13:10:20.689Z,49.63
2019-04-07T13:13:16.996Z,48.98
2019-04-07T13:16:05.871Z,49.34
2019-04-07T13:18:50.533Z,50.19
2019-04-07T13:21:39.296Z,51.12
2019-04-07T13:24:43.727Z,50.58
2019-04-07T13:27:23.943Z,49.63
2019-04-07T13:30:02.832Z,49.79
2019-04-07T13:32:43.576Z,49.96
2019-04-07T13:35:38.246Z,50.50
2019-04-07T13:38:29.508Z,51.34
2019-04-07T13:41:41.673Z,51.50
2019-04-07T13:44:26.115Z,51.53
2019-04-07T13:47:06.331Z,50.36
2019-04-07T13:50:10.555Z,49.84
2019-04-07T13:52:59.019Z,49.04
2019-04-07T13:55:52.021Z,49.92
2019-04-07T13:58:42.989Z,49.77
2019-04-07T14:01:20.028Z,50.81
2019-04-07T14:04:06.866Z,50.68
2019-04-07T14:06:56.629Z,53.00
2019-04-07T14:09:44.104Z,54.43
2019-04-07T14:12:45.396Z,55.43
2019-04-07T14:15:36.995Z,53.73
2019-04-07T14:18:24.518Z,54.13
2019-04-07T14:21:24.662Z,54.28
2019-04-07T14:24:25.184Z,53.04
2019-04-07T14:27:19.693Z,53.17
2019-04-07T14:30:17.001Z,52.25
2019-04-07T14:33:13.666Z,51.56
2019-04-07T14:36:13.924Z,51.02
2019-04-07T14:39:02.305Z,50.33
2019-04-07T14:42:03.959Z,51.89
2019-04-07T14:44:33.659Z,50.10
2019-04-07T14:47:14.444Z,50.70
2019-04-07T14:50:00.553Z,50.53
2019-04-07T14:52:41.132Z,49.80
2019-04-07T14:55:24.802Z,52.12
2019-04-07T14:58:18.713Z,50.80
2019-04-07T15:01:05.782Z,50.37
2019-04-07T15:03:33.525Z,50.58
2019-04-07T15:06:02.893Z,49.90
2019-04-07T15:08:36.963Z,50.18
2019-04-07T15:11:24.956Z,49.94
2019-04-07T15:13:56.941Z,49.97
2019-04-07T15:16:24.912Z,50.52
2019-04-07T15:18:55.097Z,51.80
2019-04-07T15:21:25.324Z,53.36
2019-04-07T15:23:54.638Z,53.03
2019-04-07T15:26:24.669Z,51.90
2019-04-07T15:28:53.878Z,53.09
2019-04-07T15:31:24.878Z,52.96
2019-04-07T15:33:54.006Z,52.46
2019-04-07T15:36:23.261Z,52.81
2019-04-07T15:38:55.507Z,52.53
2019-04-07T15:41:23.387Z,53.85
2019-04-07T15:43:54.856Z,53.82
2019-04-07T15:46:23.670Z,54.49
2019-04-07T15:48:55.605Z,53.92
2019-04-07T15:51:23.876Z,54.27
2019-04-07T15:53:56.557Z,53.21
2019-04-07T15:56:26.028Z,55.39
2019-04-07T15:58:58.055Z,56.08
2019-04-07T16:01:28.033Z,55.28
2019-04-07T16:03:57.191Z,56.61
2019-04-07T16:06:27.934Z,55.54
2019-04-07T16:09:01.014Z,57.00
2019-04-07T16:11:30.591Z,57.42
2019-04-07T16:14:02.659Z,56.68
2019-04-07T16:16:31.891Z,57.52
2019-04-07T16:19:01.420Z,56.47
2019-04-07T16:21:31.022Z,56.96
2019-04-07T16:24:00.753Z,55.83
2019-04-07T16:26:31.115Z,56.20
2019-04-07T16:29:01.265Z,57.23
2019-04-07T16:31:31.133Z,56.34
2019-04-07T16:34:00.384Z,57.74
2019-04-07T16:36:30.336Z,57.89
2019-04-07T16:39:01.957Z,57.99
2019-04-07T16:41:30.402Z,59.28
2019-04-07T16:43:59.460Z,59.16
2019-04-07T16:46:28.516Z,59.56
2019-04-07T16:48:58.680Z,59.84
2019-04-07T16:51:29.690Z,60.50
2019-04-07T16:53:58.868Z,61.02
2019-04-07T16:56:28.683Z,60.80
2019-04-07T16:58:58.572Z,60.52
2019-04-07T17:01:28.449Z,60.02
2019-04-07T17:03:59.236Z,60.66
2019-04-07T17:06:32.733Z,60.10
2019-04-07T17:09:00.436Z,60.72
2019-04-07T17:11:30.107Z,61.14
2019-04-07T17:14:02.010Z,62.75
2019-04-07T17:16:30.168Z,64.57
2019-04-07T17:18:59.869Z,65.62
2019-04-07T17:21:29.907Z,66.05
2019-04-07T17:23:59.324Z,67.28
2019-04-07T17:26:28.441Z,67.42
2019-04-07T17:28:58.599Z,67.42
2019-04-07T17:31:31.839Z,67.66
2019-04-07T17:34:00.952Z,68.21
2019-04-07T17:36:31.352Z,68.37
2019-04-07T17:39:14.496Z,69.03
2019-04-07T17:41:43.740Z,68.65
2019-04-07T17:44:24.486Z,69.26
2019-04-07T17:47:11.941Z,68.09
2019-04-07T17:49:59.324Z,68.25
2019-04-07T17:52:51.248Z,68.58
2019-04-07T17:55:38.064Z,68.54
2019-04-07T17:58:16.169Z,68.43
2019-04-07T18:01:11.503Z,68.75
2019-04-07T18:04:02.646Z,69.12
2019-04-07T18:06:49.507Z,68.69
2019-04-07T18:09:36.093Z,68.75
2019-04-07T18:12:19.819Z,69.90
2019-04-07T18:15:09.877Z,69.81
2019-04-07T18:18:01.687Z,69.53
2019-04-07T18:20:42.323Z,70.10
2019-04-07T18:23:30.015Z,70.79
2019-04-07T18:26:27.425Z,71.34
2019-04-07T18:29:06.928Z,71.63
2019-04-07T18:31:59.855Z,71.26
2019-04-07T18:34:52.846Z,71.84
2019-04-07T18:37:38.699Z,72.06
2019-04-07T18:40:43.999Z,72.21
2019-04-07T18:43:26.680Z,72.90
2019-04-07T18:46:07.264Z,72.97
2019-04-07T18:48:53.173Z,73.31
2019-04-07T18:51:31.443Z,73.85
2019-04-07T18:54:30.789Z,73.91
2019-04-07T18:57:19.471Z,74.43
2019-04-07T19:00:13.388Z,74.36
2019-04-07T19:02:57.787Z,75.02
2019-04-07T19:05:36.807Z,75.02
2019-04-07T19:08:25.073Z,75.17
2019-04-07T19:11:14.940Z,75.39
2019-04-07T19:14:20.468Z,75.70
2019-04-07T19:16:47.856Z,76.30
2019-04-07T19:19:42.001Z,76.54
2019-04-07T19:22:49.114Z,76.55
2019-04-07T19:25:37.712Z,76.70
2019-04-07T19:28:22.030Z,77.23
2019-04-07T19:31:03.337Z,77.27
2019-04-07T19:33:44.998Z,78.45
2019-04-07T19:36:42.786Z,78.12
2019-04-07T19:39:24.994Z,78.63
2019-04-07T19:42:12.372Z,78.65
2019-04-07T19:45:00.475Z,78.98
2019-04-07T19:47:54.895Z,79.25
2019-04-07T19:50:47.509Z,78.95
2019-04-07T19:53:33.146Z,79.13
2019-04-07T19:56:25.152Z,79.24
2019-04-07T19:59:10.017Z,79.47
2019-04-07T20:02:00.490Z,79.68
2019-04-07T20:04:42.347Z,79.27
2019-04-07T20:07:31.220Z,79.78
2019-04-07T20:10:16.561Z,79.95
2019-04-07T20:13:02.540Z,79.75
2019-04-07T20:15:50.662Z,79.92
2019-04-07T20:18:35.366Z,79.83
2019-04-07T20:21:39.817Z,79.76
2019-04-07T20:24:40.170Z,79.81
2019-04-07T20:27:22.553Z,79.80
2019-04-07T20:30:23.632Z,79.55
2019-04-07T20:33:14.350Z,79.94
2019-04-07T20:35:53.610Z,79.87
2019-04-07T20:38:40.172Z,80.20
2019-04-07T20:41:31.554Z,80.57
2019-04-07T20:44:19.637Z,80.57
2019-04-07T20:47:06.650Z,80.84
2019-04-07T20:50:07.609Z,80.78
2019-04-07T20:53:07.202Z,81.05
2019-04-07T20:55:39.552Z,80.57
2019-04-07T20:58:26.954Z,80.78
2019-04-07T21:01:20.893Z,81.15
2019-04-07T21:04:22.151Z,81.15
2019-04-07T21:07:20.638Z,81.04
2019-04-07T21:09:55.523Z,81.07
2019-04-07T21:12:45.422Z,81.04
2019-04-07T21:15:43.161Z,81.11
2019-04-07T21:18:40.341Z,81.43
2019-04-07T21:21:19.258Z,81.36
2019-04-07T21:24:10.344Z,81.27
2019-04-07T21:26:59.339Z,81.43
2019-04-07T21:29:44.543Z,82.00
2019-04-07T21:32:33.214Z,81.89
2019-04-07T21:35:34.732Z,81.97
2019-04-07T21:38:20.873Z,82.11
2019-04-07T21:41:16.905Z,82.26
2019-04-07T21:44:08.038Z,82.54
2019-04-07T21:46:54.681Z,82.96
2019-04-07T21:49:43.958Z,83.11
2019-04-07T21:52:24.492Z,83.39
2019-04-07T21:55:01.671Z,83.97
2019-04-07T21:57:59.702Z,84.15
2019-04-07T22:00:49.052Z,84.49
2019-04-07T22:03:40.204Z,84.79
2019-04-07T22:06:29.454Z,84.51
2019-04-07T22:09:19.461Z,84.82
2019-04-07T22:11:49.487Z,84.92
2019-04-07T22:14:18.849Z,85.18
2019-04-07T22:16:47.955Z,85.30
2019-04-07T22:19:17.631Z,85.50
2019-04-07T22:21:46.803Z,85.46
2019-04-07T22:24:15.960Z,85.67
2019-04-07T22:26:49.177Z,85.78
2019-04-07T22:29:16.213Z,86.04
2019-04-07T22:31:51.491Z,86.28
2019-04-07T22:34:20.891Z,86.48
2019-04-07T22:36:50.009Z,86.59
2019-04-07T22:39:19.282Z,87.10
2019-04-07T22:41:48.486Z,86.69
2019-04-07T22:44:19.935Z,87.10
2019-04-07T22:46:51.251Z,87.17
2019-04-07T22:49:19.820Z,86.95
2019-04-07T22:51:49.821Z,86.77
2019-04-07T22:54:19.816Z,87.19
2019-04-07T22:56:48.884Z,87.23
2019-04-07T22:59:17.923Z,87.29
2019-04-07T23:01:47.362Z,87.12
2019-04-07T23:04:16.413Z,87.26
2019-04-07T23:06:45.677Z,87.40
2019-04-07T23:09:15.521Z,87.13
2019-04-07T23:11:46.134Z,87.15
2019-04-07T23:14:15.742Z,86.93
2019-04-07T23:16:44.806Z,87.29
2019-04-07T23:19:14.341Z,87.44
2019-04-07T23:21:43.351Z,87.59
2019-04-07T23:24:12.931Z,88.02
2019-04-07T23:26:42.570Z,87.55
2019-04-07T23:29:12.138Z,87.61
2019-04-07T23:31:41.791Z,87.35
2019-04-07T23:34:10.944Z,87.27
2019-04-07T23:36:40.017Z,87.66
2019-04-07T23:39:09.956Z,87.62
2019-04-07T23:41:39.453Z,88.03
2019-04-07T23:44:09.417Z,87.80
2019-04-07T23:46:39.342Z,87.89
2019-04-07T23:49:08.358Z,88.02
2019-04-07T23:51:37.394Z,88.43
2019-04-07T23:54:10.985Z,89.01
2019-04-07T23:56:41.998Z,89.09
2019-04-07T23:59:11.820Z,89.09
